createdAt,value
2022-11-16T00:01:27.272Z,18.08
2022-11-16T00:03:58.276Z,18.04
2022-11-16T00:06:28.650Z,17.96
2022-11-16T00:09:19.257Z,17.93
2022-11-16T00:11:52.469Z,18.01
2022-11-16T00:14:23.338Z,17.95
2022-11-16T00:16:52.806Z,17.84
2022-11-16T00:19:21.848Z,17.82
2022-11-16T00:21:51.043Z,17.78
2022-11-16T00:24:22.000Z,17.84
2022-11-16T00:26:51.743Z,17.76
2022-11-16T00:29:26.412Z,17.81
2022-11-16T00:31:56.662Z,17.54
2022-11-16T00:34:25.955Z,17.55
2022-11-16T00:36:55.303Z,17.52
2022-11-16T00:39:24.536Z,17.54
2022-11-16T00:41:53.696Z,17.48
2022-11-16T00:44:22.491Z,17.43
2022-11-16T00:46:51.696Z,17.26
2022-11-16T00:49:20.630Z,17.30
2022-11-16T00:51:49.777Z,17.41
2022-11-16T00:54:18.792Z,17.38
2022-11-16T00:56:48.019Z,17.36
2022-11-16T00:59:17.245Z,17.37
2022-11-16T01:01:47.802Z,17.36
2022-11-16T01:04:20.509Z,17.35
2022-11-16T01:06:50.492Z,17.40
2022-11-16T01:09:23.845Z,17.44
2022-11-16T01:12:11.463Z,17.40
2022-11-16T01:14:50.030Z,17.46
2022-11-16T01:17:19.963Z,17.40
2022-11-16T01:19:49.578Z,17.36
2022-11-16T01:22:19.981Z,17.29
2022-11-16T01:24:49.891Z,17.30
2022-11-16T01:27:20.100Z,17.35
2022-11-16T01:29:49.777Z,17.29
2022-11-16T01:32:19.797Z,17.24
2022-11-16T01:34:49.608Z,17.32
2022-11-16T01:37:32.032Z,17.12
2022-11-16T01:40:02.439Z,17.06
2022-11-16T01:42:34.548Z,17.08
2022-11-16T01:45:13.238Z,17.22
2022-11-16T01:47:42.883Z,17.15
2022-11-16T01:50:18.990Z,17.06
2022-11-16T01:53:05.782Z,17.11
2022-11-16T01:55:46.716Z,17.01
2022-11-16T01:58:37.483Z,17.07
2022-11-16T02:01:18.728Z,17.15
2022-11-16T02:03:53.633Z,17.14
2022-11-16T02:06:26.786Z,17.18
2022-11-16T02:09:45.447Z,17.43
2022-11-16T02:12:43.094Z,17.50
2022-11-16T02:15:38.340Z,17.66
2022-11-16T02:18:41.072Z,17.72
2022-11-16T02:21:36.918Z,17.76
2022-11-16T02:24:27.581Z,17.76
2022-11-16T02:27:13.145Z,17.74
2022-11-16T02:29:54.078Z,17.97
2022-11-16T02:32:40.862Z,17.95
2022-11-16T02:35:36.099Z,18.09
2022-11-16T02:38:14.530Z,18.10
2022-11-16T02:40:49.322Z,18.20
2022-11-16T02:43:38.218Z,18.30
2022-11-16T02:46:14.052Z,18.35
2022-11-16T02:48:51.947Z,18.45
2022-11-16T02:51:24.767Z,18.50
2022-11-16T02:54:21.840Z,18.66
2022-11-16T02:57:05.540Z,18.76
2022-11-16T02:59:44.583Z,18.81
2022-11-16T03:03:03.928Z,18.92
2022-11-16T03:05:45.576Z,18.95
2022-11-16T03:08:18.878Z,19.05
2022-11-16T03:11:15.341Z,19.04
2022-11-16T03:13:46.360Z,19.08
2022-11-16T03:16:34.977Z,19.23
2022-11-16T03:19:09.784Z,19.35
2022-11-16T03:21:51.533Z,19.46
2022-11-16T03:24:23.598Z,19.41
2022-11-16T03:27:17.595Z,19.57
2022-11-16T03:29:59.700Z,19.63
2022-11-16T03:32:38.893Z,19.81
2022-11-16T03:35:24.875Z,19.79
2022-11-16T03:37:58.331Z,19.82
2022-11-16T03:40:32.932Z,19.93
2022-11-16T03:43:08.069Z,20.02
2022-11-16T03:45:39.777Z,20.08
2022-11-16T03:48:10.573Z,20.18
2022-11-16T03:50:41.935Z,20.29
2022-11-16T03:53:12.342Z,20.30
2022-11-16T03:55:48.482Z,20.34
2022-11-16T03:58:19.877Z,20.37
2022-11-16T04:00:50.124Z,20.53
2022-11-16T04:03:21.376Z,20.50
2022-11-16T04:06:10.080Z,20.57
2022-11-16T04:09:00.483Z,20.69
2022-11-16T04:11:49.973Z,20.76
2022-11-16T04:14:40.763Z,20.86
2022-11-16T04:17:38.903Z,21.15
2022-11-16T04:20:32.821Z,21.12
2022-11-16T04:23:32.187Z,21.16
2022-11-16T04:26:04.396Z,21.29
2022-11-16T04:28:36.057Z,21.40
2022-11-16T04:31:27.120Z,21.40
2022-11-16T04:34:23.949Z,21.52
2022-11-16T04:37:15.298Z,21.61
2022-11-16T04:39:45.043Z,21.66
2022-11-16T04:42:21.016Z,21.68
2022-11-16T04:45:11.141Z,21.74
2022-11-16T04:47:51.571Z,21.87
2022-11-16T04:50:23.209Z,21.89
2022-11-16T04:52:53.155Z,22.02
2022-11-16T04:55:22.444Z,21.91
2022-11-16T04:57:52.617Z,22.00
2022-11-16T05:00:23.220Z,22.20
2022-11-16T05:02:58.220Z,22.30
2022-11-16T05:05:30.976Z,22.31
2022-11-16T05:08:01.515Z,22.36
2022-11-16T05:10:33.423Z,22.53
2022-11-16T05:13:02.831Z,22.50
2022-11-16T05:15:31.936Z,22.54
2022-11-16T05:18:01.785Z,22.70
2022-11-16T05:20:50.448Z,22.68
2022-11-16T05:23:38.089Z,22.72
2022-11-16T05:26:12.664Z,22.88
2022-11-16T05:28:41.928Z,22.89
2022-11-16T05:31:13.564Z,23.02
2022-11-16T05:33:43.121Z,23.00
2022-11-16T05:36:13.565Z,23.13
2022-11-16T05:38:42.613Z,23.20
2022-11-16T05:41:14.907Z,23.23
2022-11-16T05:43:44.731Z,23.30
2022-11-16T05:46:19.796Z,23.24
2022-11-16T05:48:49.502Z,23.34
2022-11-16T05:51:19.154Z,23.36
2022-11-16T05:53:50.273Z,23.43
2022-11-16T05:56:24.185Z,23.45
2022-11-16T05:58:55.277Z,23.61
2022-11-16T06:01:24.446Z,23.68
2022-11-16T06:03:54.291Z,23.73
2022-11-16T06:06:23.035Z,23.86
2022-11-16T06:08:53.467Z,23.92
2022-11-16T06:11:29.135Z,23.97
2022-11-16T06:14:02.088Z,23.98
2022-11-16T06:16:31.360Z,24.02
2022-11-16T06:19:02.430Z,24.06
2022-11-16T06:21:31.758Z,23.88
2022-11-16T06:24:04.153Z,23.90
2022-11-16T06:26:33.729Z,24.02
2022-11-16T06:29:03.049Z,24.04
2022-11-16T06:31:33.258Z,24.09
2022-11-16T06:34:04.700Z,24.09
2022-11-16T06:36:34.273Z,24.15
2022-11-16T06:39:03.097Z,24.01
2022-11-16T06:41:41.233Z,24.22
2022-11-16T06:44:13.021Z,24.32
2022-11-16T06:46:52.267Z,24.22
2022-11-16T06:49:21.629Z,24.36
2022-11-16T06:51:52.920Z,24.41
2022-11-16T06:54:21.981Z,24.41
2022-11-16T06:56:51.536Z,24.44
2022-11-16T06:59:21.340Z,24.45
2022-11-16T07:01:52.087Z,24.50
2022-11-16T07:04:22.606Z,24.65
2022-11-16T07:06:56.711Z,24.70
2022-11-16T07:09:26.283Z,24.73
2022-11-16T07:11:55.433Z,24.80
2022-11-16T07:14:25.232Z,24.64
2022-11-16T07:16:59.322Z,24.73
2022-11-16T07:19:30.252Z,24.78
2022-11-16T07:22:01.377Z,24.75
2022-11-16T07:24:30.473Z,24.71
2022-11-16T07:26:59.224Z,24.74
2022-11-16T07:29:33.391Z,24.82
2022-11-16T07:32:29.476Z,24.67
2022-11-16T07:35:14.622Z,24.80
2022-11-16T07:37:46.879Z,25.04
2022-11-16T07:40:17.747Z,25.12
2022-11-16T07:42:48.031Z,24.98
2022-11-16T07:45:28.935Z,24.97
2022-11-16T07:48:08.226Z,25.08
2022-11-16T07:50:56.277Z,25.05
2022-11-16T07:53:25.665Z,24.98
2022-11-16T07:55:55.552Z,25.21
2022-11-16T07:58:28.574Z,25.16
2022-11-16T08:01:15.500Z,25.22
2022-11-16T08:03:48.099Z,25.04
2022-11-16T08:06:25.064Z,25.25
2022-11-16T08:08:58.654Z,25.15
2022-11-16T08:11:30.254Z,25.27
2022-11-16T08:13:59.917Z,25.26
2022-11-16T08:16:29.521Z,25.09
2022-11-16T08:19:07.965Z,24.94
2022-11-16T08:21:37.356Z,24.98
2022-11-16T08:24:06.790Z,25.23
2022-11-16T08:26:39.856Z,25.36
2022-11-16T08:29:12.954Z,25.32
2022-11-16T08:31:46.875Z,25.27
2022-11-16T08:34:20.050Z,25.29
2022-11-16T08:36:53.316Z,25.25
2022-11-16T08:39:29.118Z,25.30
2022-11-16T08:41:58.679Z,25.32
2022-11-16T08:44:27.637Z,25.39
2022-11-16T08:46:59.521Z,25.30
2022-11-16T08:49:36.077Z,25.21
2022-11-16T08:52:07.070Z,25.08
2022-11-16T08:54:37.194Z,25.19
2022-11-16T08:57:07.572Z,25.29
2022-11-16T08:59:39.352Z,25.20
2022-11-16T09:02:14.078Z,25.21
2022-11-16T09:04:43.383Z,25.29
2022-11-16T09:07:12.346Z,25.22
2022-11-16T09:09:42.035Z,25.08
2022-11-16T09:12:10.783Z,25.07
2022-11-16T09:14:40.023Z,25.08
2022-11-16T09:17:09.298Z,25.05
2022-11-16T09:19:38.733Z,25.11
2022-11-16T09:22:07.884Z,24.91
2022-11-16T09:24:37.236Z,25.03
2022-11-16T09:27:07.705Z,25.11
2022-11-16T09:29:36.848Z,25.00
2022-11-16T09:32:06.879Z,25.05
2022-11-16T09:34:37.182Z,25.10
2022-11-16T09:37:06.587Z,25.04
2022-11-16T09:39:35.617Z,25.10
2022-11-16T09:42:48.583Z,25.08
2022-11-16T09:45:26.533Z,25.17
2022-11-16T09:48:04.184Z,25.16
2022-11-16T09:50:44.588Z,25.13
2022-11-16T09:53:52.086Z,25.25
2022-11-16T09:56:26.629Z,25.14
2022-11-16T09:59:02.580Z,25.15
2022-11-16T10:01:50.331Z,25.07
2022-11-16T10:04:48.821Z,25.24
2022-11-16T10:07:26.625Z,25.09
2022-11-16T10:09:58.443Z,25.08
2022-11-16T10:12:44.464Z,25.22
2022-11-16T10:15:31.741Z,25.03
2022-11-16T10:18:28.612Z,25.17
2022-11-16T10:21:25.243Z,25.02
2022-11-16T10:24:35.015Z,24.97
2022-11-16T10:27:34.080Z,25.00
2022-11-16T10:30:18.437Z,25.01
2022-11-16T10:33:10.744Z,24.87
2022-11-16T10:35:53.138Z,24.86
2022-11-16T10:38:26.842Z,24.80
2022-11-16T10:41:21.557Z,24.83
2022-11-16T10:43:51.024Z,24.68
2022-11-16T10:46:25.462Z,24.77
2022-11-16T10:48:59.604Z,24.73
2022-11-16T10:51:29.089Z,24.63
2022-11-16T10:53:58.132Z,24.50
2022-11-16T10:56:41.744Z,24.59
2022-11-16T10:59:16.328Z,24.52
2022-11-16T11:01:52.307Z,24.57
2022-11-16T11:04:23.375Z,24.33
2022-11-16T11:07:21.175Z,24.36
2022-11-16T11:09:55.116Z,24.33
2022-11-16T11:12:41.691Z,24.20
2022-11-16T11:15:20.140Z,24.07
2022-11-16T11:18:11.704Z,23.95
2022-11-16T11:20:45.000Z,23.96
2022-11-16T11:23:25.531Z,24.02
2022-11-16T11:26:02.196Z,24.06
2022-11-16T11:28:38.089Z,23.94
2022-11-16T11:31:18.256Z,23.98
2022-11-16T11:34:01.604Z,23.84
2022-11-16T11:36:41.516Z,23.80
2022-11-16T11:39:13.547Z,23.71
2022-11-16T11:41:45.256Z,23.67
2022-11-16T11:44:19.853Z,23.63
2022-11-16T11:47:50.443Z,23.62
2022-11-16T11:50:17.835Z,23.62
2022-11-16T11:53:13.082Z,23.57
2022-11-16T11:55:42.830Z,23.46
2022-11-16T11:58:19.641Z,23.51
2022-11-16T12:01:24.857Z,23.50
2022-11-16T12:04:09.742Z,23.32
2022-11-16T12:06:44.179Z,23.28
2022-11-16T12:09:39.403Z,23.34
2022-11-16T12:12:26.794Z,23.26
2022-11-16T12:15:11.987Z,23.17
2022-11-16T12:18:01.924Z,23.11
2022-11-16T12:20:45.557Z,23.08
2022-11-16T12:23:38.945Z,23.09
2022-11-16T12:26:31.962Z,23.04
2022-11-16T12:29:20.440Z,22.96
2022-11-16T12:32:11.336Z,23.14
2022-11-16T12:34:47.144Z,23.05
2022-11-16T12:40:19.125Z,22.94
2022-11-16T12:42:59.872Z,22.92
2022-11-16T12:45:37.417Z,22.88
2022-11-16T12:48:35.614Z,22.84
2022-11-16T12:51:31.954Z,22.82
2022-11-16T12:54:10.063Z,22.78
2022-11-16T12:56:49.265Z,22.69
2022-11-16T12:59:22.063Z,22.66
2022-11-16T13:02:00.459Z,22.68
2022-11-16T13:04:42.277Z,22.65
2022-11-16T13:07:19.079Z,22.64
2022-11-16T13:09:52.646Z,22.61
2022-11-16T13:12:24.775Z,22.50
2022-11-16T13:14:57.257Z,22.49
2022-11-16T13:17:36.334Z,22.51
2022-11-16T13:20:23.148Z,22.50
2022-11-16T13:23:10.636Z,22.39
2022-11-16T13:25:47.276Z,22.28
2022-11-16T13:28:21.733Z,22.19
2022-11-16T13:31:11.884Z,22.08
2022-11-16T13:33:54.941Z,22.17
2022-11-16T13:36:46.010Z,22.20
2022-11-16T13:39:23.497Z,22.14
2022-11-16T13:42:08.565Z,22.18
2022-11-16T13:44:37.908Z,22.06
2022-11-16T13:47:27.245Z,22.16
2022-11-16T13:50:03.339Z,22.01
2022-11-16T13:55:47.485Z,21.74
2022-11-16T13:58:23.655Z,21.77
2022-11-16T14:01:03.789Z,21.71
2022-11-16T14:03:39.391Z,21.53
2022-11-16T14:06:31.005Z,21.51
2022-11-16T14:09:01.783Z,21.42
2022-11-16T14:11:39.970Z,21.45
2022-11-16T14:14:14.846Z,21.38
2022-11-16T14:16:49.738Z,21.39
2022-11-16T14:19:50.277Z,21.41
2022-11-16T14:22:45.663Z,21.39
2022-11-16T14:25:23.698Z,21.36
2022-11-16T14:28:11.227Z,21.33
2022-11-16T14:31:07.773Z,21.28
2022-11-16T14:33:39.191Z,21.19
2022-11-16T14:36:11.297Z,21.16
2022-11-16T14:38:45.744Z,21.17
2022-11-16T14:41:22.200Z,21.16
2022-11-16T14:43:55.377Z,21.11
2022-11-16T14:46:33.926Z,21.07
2022-11-16T14:49:04.614Z,21.01
2022-11-16T14:51:37.961Z,21.00
2022-11-16T14:54:21.732Z,21.04
2022-11-16T14:57:01.359Z,21.04
2022-11-16T14:59:32.656Z,20.92
2022-11-16T15:02:19.309Z,21.02
2022-11-16T15:04:49.925Z,20.90
2022-11-16T15:07:20.500Z,20.90
2022-11-16T15:09:54.650Z,20.92
2022-11-16T15:12:43.024Z,20.94
2022-11-16T15:15:12.385Z,20.81
2022-11-16T15:17:44.063Z,20.83
2022-11-16T15:20:25.948Z,20.93
2022-11-16T15:22:58.153Z,20.86
2022-11-16T15:25:44.648Z,20.90
2022-11-16T15:28:24.496Z,20.90
2022-11-16T15:30:58.847Z,20.86
2022-11-16T15:33:31.969Z,20.80
2022-11-16T15:36:01.433Z,20.70
2022-11-16T15:38:35.048Z,20.79
2022-11-16T15:41:07.067Z,20.75
2022-11-16T15:43:49.623Z,20.78
2022-11-16T15:46:35.715Z,20.80
2022-11-16T15:49:07.224Z,20.74
2022-11-16T15:51:45.686Z,20.82
2022-11-16T15:54:27.920Z,20.82
2022-11-16T15:57:06.617Z,20.74
2022-11-16T15:59:38.683Z,20.70
2022-11-16T16:02:30.652Z,20.73
2022-11-16T16:05:00.031Z,20.57
2022-11-16T16:07:40.857Z,20.65
2022-11-16T16:10:22.265Z,20.62
2022-11-16T16:12:56.934Z,20.52
2022-11-16T16:15:41.217Z,20.48
2022-11-16T16:18:41.037Z,20.52
2022-11-16T16:21:12.819Z,20.41
2022-11-16T16:23:50.973Z,20.52
2022-11-16T16:26:20.311Z,20.39
2022-11-16T16:28:49.375Z,20.38
2022-11-16T16:31:20.060Z,20.36
2022-11-16T16:33:49.222Z,20.34
2022-11-16T16:36:18.325Z,20.30
2022-11-16T16:38:47.614Z,20.27
2022-11-16T16:41:24.008Z,20.30
2022-11-16T16:43:53.531Z,20.25
2022-11-16T16:46:23.029Z,20.20
2022-11-16T16:48:52.004Z,20.20
2022-11-16T16:51:20.864Z,20.19
2022-11-16T16:53:50.128Z,20.15
2022-11-16T16:56:20.847Z,20.13
2022-11-16T16:58:50.099Z,20.09
2022-11-16T17:01:19.464Z,20.08
2022-11-16T17:03:49.123Z,20.07
2022-11-16T17:06:18.490Z,20.07
2022-11-16T17:08:47.212Z,20.04
2022-11-16T17:11:17.180Z,20.02
2022-11-16T17:13:46.445Z,20.04
2022-11-16T17:16:15.932Z,20.01
2022-11-16T17:18:45.688Z,20.00
2022-11-16T17:21:16.138Z,19.93
2022-11-16T17:23:44.844Z,19.92
2022-11-16T17:26:13.813Z,19.83
2022-11-16T17:28:43.374Z,19.93
2022-11-16T17:31:13.140Z,19.92
2022-11-16T17:33:44.129Z,19.97
2022-11-16T17:36:14.420Z,19.95
2022-11-16T17:38:43.821Z,19.94
2022-11-16T17:41:21.610Z,19.97
2022-11-16T17:43:54.080Z,19.90
2022-11-16T17:46:25.421Z,19.89
2022-11-16T17:48:54.759Z,19.84
2022-11-16T17:51:26.256Z,19.88
2022-11-16T17:53:55.519Z,19.88
2022-11-16T17:56:28.545Z,20.00
2022-11-16T17:58:59.327Z,20.03
2022-11-16T18:01:29.716Z,20.05
2022-11-16T18:03:58.801Z,20.03
2022-11-16T18:06:27.764Z,19.97
2022-11-16T18:08:58.200Z,20.05
2022-11-16T18:11:28.652Z,20.07
2022-11-16T18:14:02.267Z,20.12
2022-11-16T18:16:33.302Z,20.08
2022-11-16T18:19:05.202Z,20.00
2022-11-16T18:21:41.414Z,19.94
2022-11-16T18:24:11.669Z,19.88
2022-11-16T18:26:41.652Z,19.77
2022-11-16T18:29:17.132Z,19.74
2022-11-16T18:31:46.662Z,19.68
2022-11-16T18:34:16.151Z,19.74
2022-11-16T18:36:45.222Z,19.79
2022-11-16T18:39:14.055Z,19.77
2022-11-16T18:41:53.449Z,19.82
2022-11-16T18:44:24.135Z,19.73
2022-11-16T18:46:53.132Z,19.74
2022-11-16T18:49:22.122Z,19.73
2022-11-16T18:51:50.976Z,19.66
2022-11-16T18:54:20.672Z,19.65
2022-11-16T18:56:49.885Z,19.63
2022-11-16T18:59:19.173Z,19.49
2022-11-16T19:01:48.074Z,19.43
2022-11-16T19:04:17.246Z,19.32
2022-11-16T19:06:46.576Z,19.37
2022-11-16T19:09:15.432Z,19.38
2022-11-16T19:11:44.582Z,19.37
2022-11-16T19:14:13.884Z,19.26
2022-11-16T19:16:54.045Z,19.31
2022-11-16T19:19:26.406Z,19.29
2022-11-16T19:21:58.132Z,19.34
2022-11-16T19:24:27.079Z,19.24
2022-11-16T19:26:56.076Z,19.22
2022-11-16T19:29:25.424Z,19.27
2022-11-16T19:31:54.204Z,19.20
2022-11-16T19:34:23.047Z,19.19
2022-11-16T19:36:52.282Z,19.08
2022-11-16T19:39:22.929Z,19.11
2022-11-16T19:41:51.893Z,19.18
2022-11-16T19:44:21.202Z,19.15
2022-11-16T19:46:50.337Z,19.18
2022-11-16T19:49:20.698Z,19.18
2022-11-16T19:51:50.592Z,19.12
2022-11-16T19:54:19.305Z,19.05
2022-11-16T19:56:54.680Z,19.09
2022-11-16T19:59:23.950Z,19.08
2022-11-16T20:01:53.183Z,19.07
2022-11-16T20:04:22.084Z,19.09
2022-11-16T20:06:51.159Z,19.10
2022-11-16T20:09:20.466Z,19.05
2022-11-16T20:11:49.189Z,19.08
2022-11-16T20:14:18.091Z,19.04
2022-11-16T20:16:50.956Z,19.06
2022-11-16T20:19:20.675Z,19.21
2022-11-16T20:21:49.532Z,18.98
2022-11-16T20:24:19.712Z,19.04
2022-11-16T20:26:50.232Z,18.98
2022-11-16T20:29:20.797Z,18.89
2022-11-16T20:31:49.789Z,18.83
2022-11-16T20:34:21.481Z,18.83
2022-11-16T20:36:52.210Z,18.78
2022-11-16T20:39:22.299Z,18.82
2022-11-16T20:41:51.081Z,18.83
2022-11-16T20:44:23.221Z,18.82
2022-11-16T20:46:53.764Z,18.61
2022-11-16T20:49:23.171Z,18.61
2022-11-16T20:51:52.554Z,18.66
2022-11-16T20:54:21.528Z,18.70
2022-11-16T20:56:51.428Z,18.70
2022-11-16T20:59:20.767Z,18.65
2022-11-16T21:01:53.574Z,18.64
2022-11-16T21:04:23.101Z,18.67
2022-11-16T21:06:52.398Z,18.66
2022-11-16T21:09:23.646Z,18.70
2022-11-16T21:12:11.536Z,18.69
2022-11-16T21:14:40.659Z,18.65
2022-11-16T21:17:09.349Z,18.64
2022-11-16T21:19:38.485Z,18.69
2022-11-16T21:22:07.427Z,18.63
2022-11-16T21:24:36.120Z,18.50
2022-11-16T21:27:05.413Z,18.54
2022-11-16T21:29:34.633Z,18.50
2022-11-16T21:32:03.860Z,18.55
2022-11-16T21:34:37.285Z,18.44
2022-11-16T21:37:08.833Z,18.46
2022-11-16T21:39:38.339Z,18.47
2022-11-16T21:42:07.073Z,18.43
2022-11-16T21:44:43.116Z,18.42
2022-11-16T21:47:15.244Z,18.47
2022-11-16T21:50:08.717Z,18.41
2022-11-16T21:52:33.695Z,18.40
2022-11-16T21:55:02.702Z,18.37
2022-11-16T21:57:31.695Z,18.36
2022-11-16T22:00:01.947Z,18.33
2022-11-16T22:02:40.192Z,18.29
2022-11-16T22:05:28.436Z,18.27
2022-11-16T22:07:58.022Z,18.22
2022-11-16T22:10:27.046Z,18.17
2022-11-16T22:12:56.004Z,18.25
2022-11-16T22:15:25.203Z,18.18
2022-11-16T22:17:54.022Z,18.15
2022-11-16T22:20:23.437Z,18.24
2022-11-16T22:22:52.110Z,18.22
2022-11-16T22:25:21.347Z,18.06
2022-11-16T22:28:19.212Z,18.08
2022-11-16T22:30:39.458Z,18.00
2022-11-16T22:33:08.536Z,17.83
2022-11-16T22:35:40.296Z,18.14
2022-11-16T22:38:09.533Z,18.08
2022-11-16T22:40:38.499Z,18.11
2022-11-16T22:43:07.265Z,18.06
2022-11-16T22:45:36.347Z,18.08
2022-11-16T22:48:05.368Z,18.10
2022-11-16T22:50:34.359Z,18.12
2022-11-16T22:53:03.368Z,18.11
2022-11-16T22:55:35.518Z,17.98
2022-11-16T22:58:06.467Z,17.90
2022-11-16T23:00:40.680Z,18.00
2022-11-16T23:03:11.172Z,17.89
2022-11-16T23:05:40.292Z,17.94
2022-11-16T23:08:09.386Z,17.97
2022-11-16T23:10:58.193Z,18.00
2022-11-16T23:13:46.003Z,17.99
2022-11-16T23:16:15.229Z,17.94
2022-11-16T23:18:43.928Z,17.82
2022-11-16T23:21:31.216Z,17.98
2022-11-16T23:24:18.292Z,18.02
2022-11-16T23:27:06.229Z,17.94
2022-11-16T23:29:35.213Z,17.89
2022-11-16T23:32:03.874Z,17.75
2022-11-16T23:34:33.005Z,17.79
2022-11-16T23:37:07.071Z,17.88
2022-11-16T23:39:36.576Z,17.82
2022-11-16T23:42:23.705Z,17.83
2022-11-16T23:44:53.198Z,17.88
2022-11-16T23:47:21.982Z,17.86
2022-11-16T23:49:50.844Z,17.83
2022-11-16T23:52:20.489Z,17.75
2022-11-16T23:54:49.347Z,17.79
2022-11-16T23:57:18.308Z,17.85
2022-11-16T23:59:50.102Z,17.94
